sensor_id;sensor_type;location;lat;lon;timestamp;pressure;altitude;pressure_sealevel;temperature;humidity
59686;BME280;45554;51.096;16.976;2023-08-08T00:01:26;99773.85;;;13.42;76.39
59686;BME280;45554;51.096;16.976;2023-08-08T00:03:52;99774.61;;;13.44;76.21
59686;BME280;45554;51.096;16.976;2023-08-08T00:06:19;99776.44;;;13.46;76.15
59686;BME280;45554;51.096;16.976;2023-08-08T00:08:45;99768.00;;;13.48;76.08
59686;BME280;45554;51.096;16.976;2023-08-08T00:11:12;99767.02;;;13.49;76.01
59686;BME280;45554;51.096;16.976;2023-08-08T00:13:39;99770.94;;;13.51;75.90
59686;BME280;45554;51.096;16.976;2023-08-08T00:16:05;99773.26;;;13.53;75.81
59686;BME280;45554;51.096;16.976;2023-08-08T00:18:32;99786.15;;;13.55;75.58
59686;BME280;45554;51.096;16.976;2023-08-08T00:20:58;99782.48;;;13.56;75.49
59686;BME280;45554;51.096;16.976;2023-08-08T00:23:25;99779.23;;;13.58;75.27
59686;BME280;45554;51.096;16.976;2023-08-08T00:25:51;99780.91;;;13.59;74.95
59686;BME280;45554;51.096;16.976;2023-08-08T00:28:18;99783.67;;;13.59;74.91
59686;BME280;45554;51.096;16.976;2023-08-08T00:30:45;99780.09;;;13.61;74.74
59686;BME280;45554;51.096;16.976;2023-08-08T00:33:11;99784.47;;;13.61;74.61
59686;BME280;45554;51.096;16.976;2023-08-08T00:35:38;99776.37;;;13.61;74.58
59686;BME280;45554;51.096;16.976;2023-08-08T00:38:05;99782.73;;;13.61;74.28
59686;BME280;45554;51.096;16.976;2023-08-08T00:40:31;99787.69;;;13.60;74.12
59686;BME280;45554;51.096;16.976;2023-08-08T00:42:58;99782.61;;;13.59;73.89
59686;BME280;45554;51.096;16.976;2023-08-08T00:45:25;99785.95;;;13.59;74.04
59686;BME280;45554;51.096;16.976;2023-08-08T00:47:51;99787.42;;;13.58;74.09
59686;BME280;45554;51.096;16.976;2023-08-08T00:50:17;99796.03;;;13.57;74.06
59686;BME280;45554;51.096;16.976;2023-08-08T00:52:44;99798.09;;;13.55;74.03
59686;BME280;45554;51.096;16.976;2023-08-08T00:55:11;99797.78;;;13.52;74.18
59686;BME280;45554;51.096;16.976;2023-08-08T00:57:37;99804.34;;;13.49;74.26
59686;BME280;45554;51.096;16.976;2023-08-08T01:00:07;99806.05;;;13.47;74.19
59686;BME280;45554;51.096;16.976;2023-08-08T01:02:36;99799.77;;;13.44;74.17
59686;BME280;45554;51.096;16.976;2023-08-08T01:05:02;99799.14;;;13.40;74.51
59686;BME280;45554;51.096;16.976;2023-08-08T01:07:36;99799.58;;;13.37;74.43
59686;BME280;45554;51.096;16.976;2023-08-08T01:12:40;99800.89;;;13.26;74.76
59686;BME280;45554;51.096;16.976;2023-08-08T01:15:09;99802.40;;;13.20;74.80
59686;BME280;45554;51.096;16.976;2023-08-08T01:17:37;99801.42;;;13.14;74.98
59686;BME280;45554;51.096;16.976;2023-08-08T01:20:04;99796.19;;;13.09;75.17
59686;BME280;45554;51.096;16.976;2023-08-08T01:22:35;99799.80;;;13.02;75.38
59686;BME280;45554;51.096;16.976;2023-08-08T01:25:02;99805.73;;;12.96;75.65
59686;BME280;45554;51.096;16.976;2023-08-08T01:27:29;99805.11;;;12.90;75.97
59686;BME280;45554;51.096;16.976;2023-08-08T01:29:56;99803.83;;;12.83;76.10
59686;BME280;45554;51.096;16.976;2023-08-08T01:32:24;99806.55;;;12.77;76.40
59686;BME280;45554;51.096;16.976;2023-08-08T01:34:50;99810.28;;;12.71;76.68
59686;BME280;45554;51.096;16.976;2023-08-08T01:39:43;99802.37;;;12.61;76.96
59686;BME280;45554;51.096;16.976;2023-08-08T01:42:11;99798.11;;;12.57;77.15
59686;BME280;45554;51.096;16.976;2023-08-08T01:44:39;99798.33;;;12.52;77.40
59686;BME280;45554;51.096;16.976;2023-08-08T01:47:07;99797.21;;;12.47;77.40
59686;BME280;45554;51.096;16.976;2023-08-08T01:49:34;99791.45;;;12.44;77.61
59686;BME280;45554;51.096;16.976;2023-08-08T01:52:01;99788.60;;;12.40;77.79
59686;BME280;45554;51.096;16.976;2023-08-08T01:54:28;99787.64;;;12.36;77.87
59686;BME280;45554;51.096;16.976;2023-08-08T01:56:54;99784.23;;;12.32;78.01
59686;BME280;45554;51.096;16.976;2023-08-08T01:59:22;99786.11;;;12.28;78.11
59686;BME280;45554;51.096;16.976;2023-08-08T02:01:49;99790.20;;;12.25;78.23
59686;BME280;45554;51.096;16.976;2023-08-08T02:04:15;99792.05;;;12.21;78.37
59686;BME280;45554;51.096;16.976;2023-08-08T02:06:41;99789.34;;;12.17;78.65
59686;BME280;45554;51.096;16.976;2023-08-08T02:09:09;99789.44;;;12.13;78.84
59686;BME280;45554;51.096;16.976;2023-08-08T02:11:35;99788.04;;;12.10;78.92
59686;BME280;45554;51.096;16.976;2023-08-08T02:14:01;99786.68;;;12.07;79.07
59686;BME280;45554;51.096;16.976;2023-08-08T02:16:28;99791.95;;;12.04;79.13
59686;BME280;45554;51.096;16.976;2023-08-08T02:18:55;99794.95;;;12.01;79.33
59686;BME280;45554;51.096;16.976;2023-08-08T02:21:21;99795.86;;;11.98;79.36
59686;BME280;45554;51.096;16.976;2023-08-08T02:23:48;99799.89;;;11.95;79.36
59686;BME280;45554;51.096;16.976;2023-08-08T02:26:15;99804.22;;;11.94;79.38
59686;BME280;45554;51.096;16.976;2023-08-08T02:28:41;99797.70;;;11.91;79.35
59686;BME280;45554;51.096;16.976;2023-08-08T02:31:08;99798.37;;;11.89;79.33
59686;BME280;45554;51.096;16.976;2023-08-08T02:33:35;99796.20;;;11.88;79.59
59686;BME280;45554;51.096;16.976;2023-08-08T02:36:01;99796.08;;;11.87;79.60
59686;BME280;45554;51.096;16.976;2023-08-08T02:38:28;99796.52;;;11.86;79.66
59686;BME280;45554;51.096;16.976;2023-08-08T02:40:54;99793.40;;;11.85;79.57
59686;BME280;45554;51.096;16.976;2023-08-08T02:43:21;99791.77;;;11.83;79.64
59686;BME280;45554;51.096;16.976;2023-08-08T02:45:48;99796.63;;;11.81;79.65
59686;BME280;45554;51.096;16.976;2023-08-08T02:48:15;99794.59;;;11.80;79.58
59686;BME280;45554;51.096;16.976;2023-08-08T02:50:41;99795.86;;;11.79;79.39
59686;BME280;45554;51.096;16.976;2023-08-08T02:53:08;99799.98;;;11.78;79.61
59686;BME280;45554;51.096;16.976;2023-08-08T02:55:39;99798.80;;;11.77;79.39
59686;BME280;45554;51.096;16.976;2023-08-08T02:58:05;99799.39;;;11.76;79.26
59686;BME280;45554;51.096;16.976;2023-08-08T03:00:32;99803.85;;;11.76;79.14
59686;BME280;45554;51.096;16.976;2023-08-08T03:02:59;99803.53;;;11.75;79.07
59686;BME280;45554;51.096;16.976;2023-08-08T03:05:26;99807.86;;;11.74;78.99
59686;BME280;45554;51.096;16.976;2023-08-08T03:07:53;99813.29;;;11.74;78.86
59686;BME280;45554;51.096;16.976;2023-08-08T03:10:19;99818.77;;;11.73;78.87
59686;BME280;45554;51.096;16.976;2023-08-08T03:12:47;99821.09;;;11.73;78.87
59686;BME280;45554;51.096;16.976;2023-08-08T03:15:15;99825.41;;;11.71;78.84
59686;BME280;45554;51.096;16.976;2023-08-08T03:17:42;99827.14;;;11.68;78.88
59686;BME280;45554;51.096;16.976;2023-08-08T03:20:09;99828.75;;;11.65;78.81
59686;BME280;45554;51.096;16.976;2023-08-08T03:22:37;99831.38;;;11.63;78.94
59686;BME280;45554;51.096;16.976;2023-08-08T03:25:04;99829.60;;;11.61;78.97
59686;BME280;45554;51.096;16.976;2023-08-08T03:27:31;99831.35;;;11.58;78.98
59686;BME280;45554;51.096;16.976;2023-08-08T03:29:58;99829.88;;;11.57;79.07
59686;BME280;45554;51.096;16.976;2023-08-08T03:32:25;99829.32;;;11.54;79.19
59686;BME280;45554;51.096;16.976;2023-08-08T03:34:52;99839.09;;;11.52;79.13
59686;BME280;45554;51.096;16.976;2023-08-08T03:37:18;99840.41;;;11.51;79.13
59686;BME280;45554;51.096;16.976;2023-08-08T03:39:46;99840.23;;;11.48;79.11
59686;BME280;45554;51.096;16.976;2023-08-08T03:42:12;99838.45;;;11.46;79.29
59686;BME280;45554;51.096;16.976;2023-08-08T03:44:40;99841.30;;;11.46;79.34
59686;BME280;45554;51.096;16.976;2023-08-08T03:47:07;99845.05;;;11.45;79.45
59686;BME280;45554;51.096;16.976;2023-08-08T03:49:45;99848.06;;;11.44;79.45
59686;BME280;45554;51.096;16.976;2023-08-08T03:52:12;99849.67;;;11.43;79.50
59686;BME280;45554;51.096;16.976;2023-08-08T03:54:40;99851.08;;;11.44;79.31
59686;BME280;45554;51.096;16.976;2023-08-08T03:57:06;99859.66;;;11.44;79.49
59686;BME280;45554;51.096;16.976;2023-08-08T03:59:34;99858.30;;;11.43;79.47
59686;BME280;45554;51.096;16.976;2023-08-08T04:02:00;99859.88;;;11.43;79.48
59686;BME280;45554;51.096;16.976;2023-08-08T04:04:26;99858.88;;;11.43;79.49
59686;BME280;45554;51.096;16.976;2023-08-08T04:06:53;99861.83;;;11.43;79.52
59686;BME280;45554;51.096;16.976;2023-08-08T04:09:20;99862.70;;;11.43;79.67
59686;BME280;45554;51.096;16.976;2023-08-08T04:11:46;99865.00;;;11.43;79.63
59686;BME280;45554;51.096;16.976;2023-08-08T04:14:13;99864.52;;;11.42;79.54
59686;BME280;45554;51.096;16.976;2023-08-08T04:16:39;99867.84;;;11.42;79.65
59686;BME280;45554;51.096;16.976;2023-08-08T04:19:06;99863.59;;;11.43;79.59
59686;BME280;45554;51.096;16.976;2023-08-08T04:21:32;99864.50;;;11.45;79.67
59686;BME280;45554;51.096;16.976;2023-08-08T04:23:59;99869.80;;;11.47;79.66
59686;BME280;45554;51.096;16.976;2023-08-08T04:26:25;99876.98;;;11.52;79.69
59686;BME280;45554;51.096;16.976;2023-08-08T04:28:52;99876.55;;;11.59;79.68
59686;BME280;45554;51.096;16.976;2023-08-08T04:31:19;99877.45;;;11.67;79.51
59686;BME280;45554;51.096;16.976;2023-08-08T04:33:45;99881.79;;;11.76;79.25
59686;BME280;45554;51.096;16.976;2023-08-08T04:36:12;99882.92;;;11.85;78.96
59686;BME280;45554;51.096;16.976;2023-08-08T04:38:38;99889.16;;;11.95;78.66
59686;BME280;45554;51.096;16.976;2023-08-08T04:41:04;99890.05;;;12.05;78.17
59686;BME280;45554;51.096;16.976;2023-08-08T04:43:31;99884.09;;;12.18;78.01
59686;BME280;45554;51.096;16.976;2023-08-08T04:45:57;99890.73;;;12.29;77.54
59686;BME280;45554;51.096;16.976;2023-08-08T04:48:24;99891.04;;;12.38;76.97
59686;BME280;45554;51.096;16.976;2023-08-08T04:50:51;99892.88;;;12.44;76.67
59686;BME280;45554;51.096;16.976;2023-08-08T04:53:17;99897.72;;;12.50;76.14
59686;BME280;45554;51.096;16.976;2023-08-08T04:55:43;99904.33;;;12.56;75.96
59686;BME280;45554;51.096;16.976;2023-08-08T04:58:11;99902.23;;;12.64;75.68
59686;BME280;45554;51.096;16.976;2023-08-08T05:00:37;99903.15;;;12.74;75.48
59686;BME280;45554;51.096;16.976;2023-08-08T05:03:03;99908.85;;;12.85;74.95
59686;BME280;45554;51.096;16.976;2023-08-08T05:05:30;99908.40;;;12.97;73.89
59686;BME280;45554;51.096;16.976;2023-08-08T05:07:57;99908.38;;;13.07;73.59
59686;BME280;45554;51.096;16.976;2023-08-08T05:10:23;99905.17;;;13.17;73.34
59686;BME280;45554;51.096;16.976;2023-08-08T05:12:50;99905.33;;;13.28;72.97
59686;BME280;45554;51.096;16.976;2023-08-08T05:15:16;99910.19;;;13.36;72.00
59686;BME280;45554;51.096;16.976;2023-08-08T05:17:42;99909.41;;;13.44;71.79
59686;BME280;45554;51.096;16.976;2023-08-08T05:20:09;99907.13;;;13.52;72.02
59686;BME280;45554;51.096;16.976;2023-08-08T05:22:36;99906.17;;;13.60;71.76
59686;BME280;45554;51.096;16.976;2023-08-08T05:25:03;99916.21;;;13.67;70.76
59686;BME280;45554;51.096;16.976;2023-08-08T05:27:30;99915.03;;;13.74;70.13
59686;BME280;45554;51.096;16.976;2023-08-08T05:29:56;99917.11;;;13.79;70.13
59686;BME280;45554;51.096;16.976;2023-08-08T05:32:22;99916.41;;;13.84;70.47
59686;BME280;45554;51.096;16.976;2023-08-08T05:34:50;99921.52;;;13.86;70.27
59686;BME280;45554;51.096;16.976;2023-08-08T05:37:16;99923.39;;;13.87;69.69
59686;BME280;45554;51.096;16.976;2023-08-08T05:39:43;99927.24;;;13.87;69.74
59686;BME280;45554;51.096;16.976;2023-08-08T05:42:10;99927.41;;;13.90;70.01
59686;BME280;45554;51.096;16.976;2023-08-08T05:44:37;99923.03;;;13.94;70.32
59686;BME280;45554;51.096;16.976;2023-08-08T05:47:03;99921.63;;;14.01;70.53
59686;BME280;45554;51.096;16.976;2023-08-08T05:49:30;99925.59;;;14.12;69.64
59686;BME280;45554;51.096;16.976;2023-08-08T05:51:56;99925.86;;;14.22;68.79
59686;BME280;45554;51.096;16.976;2023-08-08T05:54:22;99926.17;;;14.32;68.08
59686;BME280;45554;51.096;16.976;2023-08-08T05:56:49;99916.44;;;14.42;67.67
59686;BME280;45554;51.096;16.976;2023-08-08T05:59:15;99914.69;;;14.49;67.11
59686;BME280;45554;51.096;16.976;2023-08-08T06:01:42;99916.30;;;14.49;66.63
59686;BME280;45554;51.096;16.976;2023-08-08T06:04:10;99918.30;;;14.48;66.57
59686;BME280;45554;51.096;16.976;2023-08-08T06:06:37;99921.83;;;14.46;66.43
59686;BME280;45554;51.096;16.976;2023-08-08T06:09:03;99919.33;;;14.44;66.50
59686;BME280;45554;51.096;16.976;2023-08-08T06:11:30;99919.65;;;14.44;66.23
59686;BME280;45554;51.096;16.976;2023-08-08T06:13:56;99918.52;;;14.47;66.24
59686;BME280;45554;51.096;16.976;2023-08-08T06:16:23;99927.15;;;14.54;65.86
59686;BME280;45554;51.096;16.976;2023-08-08T06:18:49;99917.43;;;14.66;65.17
59686;BME280;45554;51.096;16.976;2023-08-08T06:21:16;99919.06;;;14.77;63.98
59686;BME280;45554;51.096;16.976;2023-08-08T06:23:42;99914.14;;;14.91;63.49
59686;BME280;45554;51.096;16.976;2023-08-08T06:26:09;99918.47;;;15.03;62.95
59686;BME280;45554;51.096;16.976;2023-08-08T06:28:37;99918.27;;;15.12;62.43
59686;BME280;45554;51.096;16.976;2023-08-08T06:31:03;99915.73;;;15.20;62.39
59686;BME280;45554;51.096;16.976;2023-08-08T06:33:30;99925.95;;;15.24;62.28
59686;BME280;45554;51.096;16.976;2023-08-08T06:35:56;99929.34;;;15.21;61.03
59686;BME280;45554;51.096;16.976;2023-08-08T06:38:23;99932.41;;;15.14;60.19
59686;BME280;45554;51.096;16.976;2023-08-08T06:40:49;99926.91;;;15.05;60.41
59686;BME280;45554;51.096;16.976;2023-08-08T06:43:16;99929.02;;;14.99;60.01
59686;BME280;45554;51.096;16.976;2023-08-08T06:45:43;99919.30;;;14.94;60.03
59686;BME280;45554;51.096;16.976;2023-08-08T06:48:11;99909.72;;;14.91;60.74
59686;BME280;45554;51.096;16.976;2023-08-08T06:50:37;99908.21;;;14.90;60.81
59686;BME280;45554;51.096;16.976;2023-08-08T06:53:04;99904.88;;;14.89;61.07
59686;BME280;45554;51.096;16.976;2023-08-08T06:55:31;99914.50;;;14.91;60.10
59686;BME280;45554;51.096;16.976;2023-08-08T06:57:57;99909.95;;;14.92;59.13
59686;BME280;45554;51.096;16.976;2023-08-08T07:00:25;99913.45;;;14.94;58.23
59686;BME280;45554;51.096;16.976;2023-08-08T07:02:53;99912.48;;;14.98;58.08
59686;BME280;45554;51.096;16.976;2023-08-08T07:05:24;99912.23;;;15.02;56.66
59686;BME280;45554;51.096;16.976;2023-08-08T07:07:54;99907.26;;;15.06;56.30
59686;BME280;45554;51.096;16.976;2023-08-08T07:10:21;99912.13;;;15.14;55.92
59686;BME280;45554;51.096;16.976;2023-08-08T07:12:48;99902.98;;;15.20;56.16
59686;BME280;45554;51.096;16.976;2023-08-08T07:15:15;99900.13;;;15.29;55.92
59686;BME280;45554;51.096;16.976;2023-08-08T07:17:43;99899.29;;;15.38;55.22
59686;BME280;45554;51.096;16.976;2023-08-08T07:20:11;99891.75;;;15.43;54.27
59686;BME280;45554;51.096;16.976;2023-08-08T07:22:40;99892.29;;;15.50;54.43
59686;BME280;45554;51.096;16.976;2023-08-08T07:25:09;99892.00;;;15.58;54.34
59686;BME280;45554;51.096;16.976;2023-08-08T07:27:37;99892.21;;;15.64;54.17
59686;BME280;45554;51.096;16.976;2023-08-08T07:30:04;99893.80;;;15.70;53.95
59686;BME280;45554;51.096;16.976;2023-08-08T07:32:35;99897.95;;;15.71;51.80
59686;BME280;45554;51.096;16.976;2023-08-08T07:35:02;99898.51;;;15.71;52.03
59686;BME280;45554;51.096;16.976;2023-08-08T07:37:32;99893.79;;;15.71;53.32
59686;BME280;45554;51.096;16.976;2023-08-08T07:39:59;99902.38;;;15.71;53.13
59686;BME280;45554;51.096;16.976;2023-08-08T07:42:27;99901.54;;;15.71;50.58
59686;BME280;45554;51.096;16.976;2023-08-08T07:44:53;99903.84;;;15.73;50.84
59686;BME280;45554;51.096;16.976;2023-08-08T07:47:20;99910.91;;;15.77;50.38
59686;BME280;45554;51.096;16.976;2023-08-08T07:49:47;99905.55;;;15.84;50.13
59686;BME280;45554;51.096;16.976;2023-08-08T07:52:13;99898.70;;;15.97;50.97
59686;BME280;45554;51.096;16.976;2023-08-08T07:54:40;99905.57;;;16.17;50.76
59686;BME280;45554;51.096;16.976;2023-08-08T07:57:06;99904.72;;;16.39;50.11
59686;BME280;45554;51.096;16.976;2023-08-08T07:59:33;99903.64;;;16.58;49.56
59686;BME280;45554;51.096;16.976;2023-08-08T08:02:00;99917.10;;;16.74;48.12
59686;BME280;45554;51.096;16.976;2023-08-08T08:04:26;99919.44;;;16.84;45.58
59686;BME280;45554;51.096;16.976;2023-08-08T08:06:53;99914.75;;;16.91;45.06
59686;BME280;45554;51.096;16.976;2023-08-08T08:09:20;99919.61;;;16.98;44.85
59686;BME280;45554;51.096;16.976;2023-08-08T08:11:47;99903.27;;;17.01;44.81
59686;BME280;45554;51.096;16.976;2023-08-08T08:14:13;99897.70;;;17.07;44.38
59686;BME280;45554;51.096;16.976;2023-08-08T08:16:40;99903.50;;;17.19;44.32
59686;BME280;45554;51.096;16.976;2023-08-08T08:19:06;99902.74;;;17.40;43.96
59686;BME280;45554;51.096;16.976;2023-08-08T08:21:36;99910.39;;;17.57;42.83
59686;BME280;45554;51.096;16.976;2023-08-08T08:24:07;99906.56;;;17.64;42.23
59686;BME280;45554;51.096;16.976;2023-08-08T08:26:34;99903.14;;;17.71;42.50
59686;BME280;45554;51.096;16.976;2023-08-08T08:29:00;99892.04;;;17.78;43.50
59686;BME280;45554;51.096;16.976;2023-08-08T08:31:27;99885.09;;;17.84;44.09
59686;BME280;45554;51.096;16.976;2023-08-08T08:33:54;99897.73;;;17.91;43.77
59686;BME280;45554;51.096;16.976;2023-08-08T08:36:21;99899.15;;;17.95;43.66
59686;BME280;45554;51.096;16.976;2023-08-08T08:38:48;99892.56;;;17.99;43.95
59686;BME280;45554;51.096;16.976;2023-08-08T08:41:15;99892.50;;;18.02;43.86
59686;BME280;45554;51.096;16.976;2023-08-08T08:43:43;99894.80;;;18.00;43.57
59686;BME280;45554;51.096;16.976;2023-08-08T08:46:11;99906.26;;;17.95;43.24
59686;BME280;45554;51.096;16.976;2023-08-08T08:48:37;99888.77;;;17.90;43.55
59686;BME280;45554;51.096;16.976;2023-08-08T08:51:04;99893.73;;;17.91;43.60
59686;BME280;45554;51.096;16.976;2023-08-08T08:53:31;99886.86;;;17.94;43.91
59686;BME280;45554;51.096;16.976;2023-08-08T08:56:01;99882.93;;;18.02;44.21
59686;BME280;45554;51.096;16.976;2023-08-08T08:58:27;99879.60;;;18.15;44.25
59686;BME280;45554;51.096;16.976;2023-08-08T09:00:55;99883.30;;;18.29;44.27
59686;BME280;45554;51.096;16.976;2023-08-08T09:03:21;99887.44;;;18.36;43.36
59686;BME280;45554;51.096;16.976;2023-08-08T09:05:48;99890.72;;;18.43;43.30
59686;BME280;45554;51.096;16.976;2023-08-08T09:08:15;99888.90;;;18.47;42.86
59686;BME280;45554;51.096;16.976;2023-08-08T09:10:41;99879.34;;;18.56;43.50
59686;BME280;45554;51.096;16.976;2023-08-08T09:13:08;99888.70;;;18.68;43.09
59686;BME280;45554;51.096;16.976;2023-08-08T09:15:35;99901.81;;;18.72;41.14
59686;BME280;45554;51.096;16.976;2023-08-08T09:18:01;99889.59;;;18.72;41.48
59686;BME280;45554;51.096;16.976;2023-08-08T09:20:28;99892.28;;;18.75;41.50
59686;BME280;45554;51.096;16.976;2023-08-08T09:22:56;99883.18;;;18.76;41.65
59686;BME280;45554;51.096;16.976;2023-08-08T09:25:23;99881.80;;;18.81;42.11
59686;BME280;45554;51.096;16.976;2023-08-08T09:27:50;99886.90;;;18.87;41.79
59686;BME280;45554;51.096;16.976;2023-08-08T09:30:18;99888.45;;;18.85;41.51
59686;BME280;45554;51.096;16.976;2023-08-08T09:32:44;99892.72;;;18.83;41.53
59686;BME280;45554;51.096;16.976;2023-08-08T09:35:11;99900.87;;;18.82;41.06
59686;BME280;45554;51.096;16.976;2023-08-08T09:37:38;99904.77;;;18.86;41.23
59686;BME280;45554;51.096;16.976;2023-08-08T09:40:05;99906.73;;;18.86;40.76
59686;BME280;45554;51.096;16.976;2023-08-08T09:42:34;99897.60;;;18.90;40.87
59686;BME280;45554;51.096;16.976;2023-08-08T09:45:02;99904.65;;;18.98;40.90
59686;BME280;45554;51.096;16.976;2023-08-08T09:47:28;99889.54;;;19.11;41.43
59686;BME280;45554;51.096;16.976;2023-08-08T09:49:59;99885.11;;;19.28;42.02
59686;BME280;45554;51.096;16.976;2023-08-08T09:52:27;99887.79;;;19.40;41.94
59686;BME280;45554;51.096;16.976;2023-08-08T09:54:54;99896.30;;;19.42;40.81
59686;BME280;45554;51.096;16.976;2023-08-08T09:57:22;99900.78;;;19.33;39.62
59686;BME280;45554;51.096;16.976;2023-08-08T09:59:51;99900.07;;;19.22;40.20
59686;BME280;45554;51.096;16.976;2023-08-08T10:02:18;99902.58;;;19.16;40.58
59686;BME280;45554;51.096;16.976;2023-08-08T10:04:45;99892.66;;;19.14;41.01
59686;BME280;45554;51.096;16.976;2023-08-08T10:07:12;99892.16;;;19.12;41.26
59686;BME280;45554;51.096;16.976;2023-08-08T10:09:39;99898.88;;;19.05;40.81
59686;BME280;45554;51.096;16.976;2023-08-08T10:12:06;99908.70;;;18.93;40.62
59686;BME280;45554;51.096;16.976;2023-08-08T10:14:34;99898.20;;;18.82;40.89
59686;BME280;45554;51.096;16.976;2023-08-08T10:17:06;99895.13;;;18.75;41.61
59686;BME280;45554;51.096;16.976;2023-08-08T10:19:33;99898.52;;;18.78;42.16
59686;BME280;45554;51.096;16.976;2023-08-08T10:22:05;99893.61;;;18.85;42.15
59686;BME280;45554;51.096;16.976;2023-08-08T10:24:33;99894.88;;;18.94;42.47
59686;BME280;45554;51.096;16.976;2023-08-08T10:26:59;99888.36;;;19.07;42.83
59686;BME280;45554;51.096;16.976;2023-08-08T10:29:29;99898.89;;;19.21;42.40
59686;BME280;45554;51.096;16.976;2023-08-08T10:32:03;99902.10;;;19.27;42.62
59686;BME280;45554;51.096;16.976;2023-08-08T10:34:40;99895.83;;;19.27;42.47
59686;BME280;45554;51.096;16.976;2023-08-08T10:37:10;99898.77;;;19.28;41.81
59686;BME280;45554;51.096;16.976;2023-08-08T10:39:47;99900.86;;;19.28;40.81
59686;BME280;45554;51.096;16.976;2023-08-08T10:42:17;99898.02;;;19.34;41.14
59686;BME280;45554;51.096;16.976;2023-08-08T10:44:49;99890.41;;;19.36;40.81
59686;BME280;45554;51.096;16.976;2023-08-08T10:47:39;99887.99;;;19.40;41.35
59686;BME280;45554;51.096;16.976;2023-08-08T10:52:37;99886.44;;;19.31;40.88
59686;BME280;45554;51.096;16.976;2023-08-08T10:55:04;99882.23;;;19.28;41.33
59686;BME280;45554;51.096;16.976;2023-08-08T10:57:31;99884.60;;;19.27;40.86
59686;BME280;45554;51.096;16.976;2023-08-08T11:00:16;99872.72;;;19.22;41.30
59686;BME280;45554;51.096;16.976;2023-08-08T11:02:43;99866.52;;;19.20;42.03
59686;BME280;45554;51.096;16.976;2023-08-08T11:05:10;99876.45;;;19.18;41.76
59686;BME280;45554;51.096;16.976;2023-08-08T11:07:37;99869.55;;;19.18;42.71
59686;BME280;45554;51.096;16.976;2023-08-08T11:10:04;99875.39;;;19.22;42.44
59686;BME280;45554;51.096;16.976;2023-08-08T11:12:32;99870.46;;;19.19;42.83
59686;BME280;45554;51.096;16.976;2023-08-08T11:14:58;99870.28;;;19.11;42.53
59686;BME280;45554;51.096;16.976;2023-08-08T11:17:25;99871.77;;;18.96;42.43
59686;BME280;45554;51.096;16.976;2023-08-08T11:19:51;99858.75;;;18.84;43.24
59686;BME280;45554;51.096;16.976;2023-08-08T11:22:21;99858.45;;;18.82;43.48
59686;BME280;45554;51.096;16.976;2023-08-08T11:24:49;99862.58;;;18.87;43.67
59686;BME280;45554;51.096;16.976;2023-08-08T11:27:16;99868.23;;;18.93;43.93
59686;BME280;45554;51.096;16.976;2023-08-08T11:30:04;99879.94;;;18.89;43.79
59686;BME280;45554;51.096;16.976;2023-08-08T11:32:33;99875.25;;;18.83;43.98
59686;BME280;45554;51.096;16.976;2023-08-08T11:35:03;99871.86;;;18.93;44.27
59686;BME280;45554;51.096;16.976;2023-08-08T11:37:31;99870.90;;;19.04;44.12
59686;BME280;45554;51.096;16.976;2023-08-08T11:39:58;99864.83;;;19.08;44.51
59686;BME280;45554;51.096;16.976;2023-08-08T11:42:28;99864.78;;;19.10;44.01
59686;BME280;45554;51.096;16.976;2023-08-08T11:44:54;99853.84;;;19.15;44.86
59686;BME280;45554;51.096;16.976;2023-08-08T11:47:26;99868.66;;;19.33;44.62
59686;BME280;45554;51.096;16.976;2023-08-08T11:49:54;99871.63;;;19.53;43.55
59686;BME280;45554;51.096;16.976;2023-08-08T11:52:23;99865.05;;;19.62;43.03
59686;BME280;45554;51.096;16.976;2023-08-08T11:54:51;99859.94;;;19.65;43.01
59686;BME280;45554;51.096;16.976;2023-08-08T11:57:18;99859.89;;;19.66;43.41
59686;BME280;45554;51.096;16.976;2023-08-08T11:59:47;99849.88;;;19.79;44.09
59686;BME280;45554;51.096;16.976;2023-08-08T12:02:14;99847.86;;;20.08;43.83
59686;BME280;45554;51.096;16.976;2023-08-08T12:04:46;99846.21;;;20.35;43.84
59686;BME280;45554;51.096;16.976;2023-08-08T12:07:17;99844.41;;;20.59;42.92
59686;BME280;45554;51.096;16.976;2023-08-08T12:09:44;99847.94;;;20.64;42.89
59686;BME280;45554;51.096;16.976;2023-08-08T12:12:16;99852.20;;;20.63;42.43
59686;BME280;45554;51.096;16.976;2023-08-08T12:14:46;99854.30;;;20.62;42.91
59686;BME280;45554;51.096;16.976;2023-08-08T12:17:30;99857.27;;;20.62;41.90
59686;BME280;45554;51.096;16.976;2023-08-08T12:20:03;99858.63;;;20.66;41.76
59686;BME280;45554;51.096;16.976;2023-08-08T12:22:34;99854.43;;;20.79;41.20
59686;BME280;45554;51.096;16.976;2023-08-08T12:25:01;99845.65;;;20.83;41.53
59686;BME280;45554;51.096;16.976;2023-08-08T12:27:30;99850.38;;;20.88;41.70
59686;BME280;45554;51.096;16.976;2023-08-08T12:30:00;99849.14;;;20.89;41.05
59686;BME280;45554;51.096;16.976;2023-08-08T12:32:27;99845.04;;;21.08;41.69
59686;BME280;45554;51.096;16.976;2023-08-08T12:34:55;99860.18;;;21.33;41.03
59686;BME280;45554;51.096;16.976;2023-08-08T12:37:22;99844.24;;;21.37;40.76
59686;BME280;45554;51.096;16.976;2023-08-08T12:39:50;99849.42;;;21.39;40.74
59686;BME280;45554;51.096;16.976;2023-08-08T12:42:16;99845.52;;;21.35;40.70
59686;BME280;45554;51.096;16.976;2023-08-08T12:44:43;99852.15;;;21.30;39.92
59686;BME280;45554;51.096;16.976;2023-08-08T12:47:10;99843.30;;;21.23;39.17
59686;BME280;45554;51.096;16.976;2023-08-08T12:49:41;99845.13;;;21.21;39.28
59686;BME280;45554;51.096;16.976;2023-08-08T12:52:09;99843.63;;;21.23;39.52
59686;BME280;45554;51.096;16.976;2023-08-08T12:54:35;99847.37;;;21.21;39.11
59686;BME280;45554;51.096;16.976;2023-08-08T12:57:02;99846.33;;;21.14;39.14
59686;BME280;45554;51.096;16.976;2023-08-08T12:59:32;99842.20;;;21.13;39.58